Eastmain, Canada
Current Conditions -  °F | °C
As of 7:11 PM on Thursday 27 Nov 2014 (Local Time) from CYGL Reporting Station
Ice Pellets Ice Pellets  
Wind Chill: -20°   Ceiling: Unl
Heat Index: -2°   Visibility: 15mi
Dew Point: -6°   Wind: 12mph
Humidity: 85%   Direction: 190°S
Pressure: 30.14"   Gusts: NA
Location:  52.23°N, 78.52°W
Report Text: CYGL 280011Z 19010KT 15SM IC FEW020 M19/M21 A3014 RMK SC1 SLP232
Loading
Personal Weather Stations






























Interactive Weather Map New forecast layout! Learn more

10-Day Weather Forecast

Advertisements
Track Severe Weather on mobile